Time;durP1;ratioP1;P1;durP2;ratioP2;P2;SDS_P1;SDS_P2;PMS_P1;PMS_P2;Temp;Humidity;BMP_temperature;BMP_pressure;BME280_temperature;BME280_humidity;BME280_pressure;Samples;Min_cycle;Max_cycle;Signal;HPM_P1;HPM_P2
2023/03/05 00:02:04;;;;;;;7.90;2.92;;;11.20;91.00;;;;;;5050014;28;20454;-69
2023/03/05 00:04:30;;;;;;;4.22;2.00;;;11.20;91.00;;;;;;5053407;28;20087;-68
2023/03/05 00:06:56;;;;;;;5.53;2.28;;;11.20;91.10;;;;;;5053658;28;20506;-69
2023/03/05 00:09:21;;;;;;;7.00;2.80;;;11.20;91.10;;;;;;5054071;28;20112;-69
2023/03/05 00:11:47;;;;;;;8.65;3.17;;;11.10;91.20;;;;;;5034997;28;20107;-69
2023/03/05 00:14:12;;;;;;;8.05;2.90;;;11.10;91.20;;;;;;5035400;28;20041;-69
2023/03/05 00:16:38;;;;;;;9.38;3.53;;;11.10;91.30;;;;;;5053954;28;20021;-68
2023/03/05 00:19:05;;;;;;;11.23;4.13;;;11.10;91.30;;;;;;5053873;28;20480;-68
2023/03/05 00:21:37;;;;;;;9.35;3.30;;;11.10;91.20;;;;;;5053466;28;20111;-69
2023/03/05 00:24:05;;;;;;;7.00;3.42;;;11.10;91.20;;;;;;5053119;28;20021;-69
2023/03/05 00:26:33;;;;;;;9.15;2.97;;;11.10;91.30;;;;;;5038545;28;20183;-68
2023/03/05 00:28:59;;;;;;;4.25;2.58;;;11.10;91.30;;;;;;5035618;28;20022;-69
2023/03/05 00:31:30;;;;;;;6.57;2.55;;;11.10;91.30;;;;;;5053443;28;20112;-69
2023/03/05 00:33:58;;;;;;;4.50;2.47;;;11.10;91.40;;;;;;5053864;28;20028;-68
2023/03/05 00:36:24;;;;;;;5.28;3.05;;;11.00;91.40;;;;;;5053110;28;20040;-68
2023/03/05 00:38:49;;;;;;;8.35;3.47;;;11.00;91.50;;;;;;5053431;28;20029;-68
2023/03/05 00:41:15;;;;;;;6.85;3.05;;;10.90;91.50;;;;;;5050770;28;20112;-69
2023/03/05 00:43:41;;;;;;;7.13;3.00;;;11.00;91.60;;;;;;5033291;28;20025;-68
2023/03/05 00:46:06;;;;;;;10.18;3.42;;;11.00;91.60;;;;;;5042801;28;20036;-68
2023/03/05 00:48:32;;;;;;;7.20;3.33;;;11.00;91.60;;;;;;5052504;28;20021;-68
2023/03/05 00:50:57;;;;;;;7.50;3.53;;;11.00;91.60;;;;;;5052648;28;20039;-68
2023/03/05 00:53:23;;;;;;;5.40;3.20;;;11.00;91.60;;;;;;5051246;28;20057;-68
2023/03/05 00:55:49;;;;;;;7.80;3.13;;;11.00;91.60;;;;;;5047998;28;20482;-68
2023/03/05 00:58:14;;;;;;;4.85;2.95;;;10.90;91.60;;;;;;5052670;28;20470;-68
2023/03/05 01:00:40;;;;;;;6.72;2.80;;;10.90;91.50;;;;;;5047268;28;20514;-68
2023/03/05 01:03:05;;;;;;;9.98;3.15;;;10.90;91.50;;;;;;5012913;28;20113;-68
2023/03/05 01:05:31;;;;;;;6.45;3.00;;;10.90;91.50;;;;;;5033175;28;20071;-68
2023/03/05 01:07:57;;;;;;;6.93;3.17;;;10.90;91.40;;;;;;5032703;28;20487;-68
2023/03/05 01:10:26;;;;;;;5.97;2.97;;;10.90;91.40;;;;;;5033074;28;20021;-68
2023/03/05 01:12:53;;;;;;;5.97;3.20;;;10.90;91.30;;;;;;5032528;28;20041;-68
2023/03/05 01:15:19;;;;;;;5.80;2.97;;;10.80;91.30;;;;;;5032828;28;20040;-69
2023/03/05 01:17:44;;;;;;;12.82;3.95;;;10.80;91.30;;;;;;5032902;28;20026;-68
2023/03/05 01:20:15;;;;;;;5.78;2.70;;;10.80;91.20;;;;;;5032955;28;20382;-68
2023/03/05 01:22:40;;;;;;;7.80;3.35;;;10.80;91.30;;;;;;5032656;28;20108;-68
2023/03/05 01:25:06;;;;;;;8.52;4.05;;;10.80;91.30;;;;;;5032848;28;20049;-69
2023/03/05 01:27:33;;;;;;;5.90;2.90;;;10.70;91.30;;;;;;5031679;28;20039;-69
2023/03/05 01:29:58;;;;;;;5.90;3.10;;;10.80;91.40;;;;;;5032804;28;20021;-69
2023/03/05 01:32:24;;;;;;;6.20;3.13;;;10.80;91.40;;;;;;5032672;28;20072;-69
2023/03/05 01:34:49;;;;;;;5.95;2.53;;;10.80;91.70;;;;;;5032575;28;20536;-68
2023/03/05 01:37:15;;;;;;;5.80;2.67;;;10.70;91.30;;;;;;5032535;28;20119;-68
2023/03/05 01:39:40;;;;;;;6.22;2.53;;;10.70;91.30;;;;;;5032430;28;20156;-68
2023/03/05 01:42:06;;;;;;;6.10;2.47;;;10.70;91.30;;;;;;5031950;28;20463;-68
2023/03/05 01:44:33;;;;;;;6.20;2.60;;;10.70;91.40;;;;;;5032511;28;20522;-69
2023/03/05 01:46:59;;;;;;;6.85;2.88;;;10.70;91.40;;;;;;5032199;28;20034;-68
2023/03/05 01:49:33;;;;;;;8.57;2.47;;;10.60;91.50;;;;;;5032322;28;20025;-68
2023/03/05 01:52:16;;;;;;;5.40;2.55;;;10.60;91.40;;;;;;5032588;28;20037;-68
2023/03/05 01:54:52;;;;;;;7.03;2.67;;;10.60;91.50;;;;;;5032405;28;20024;-68
2023/03/05 01:57:40;;;;;;;5.13;2.35;;;10.60;91.40;;;;;;5032155;28;20108;-68
2023/03/05 02:00:17;;;;;;;5.93;2.70;;;10.60;91.50;;;;;;5014456;28;20033;-68
2023/03/05 02:02:44;;;;;;;5.80;2.58;;;10.60;91.50;;;;;;5032434;28;20108;-68
2023/03/05 02:05:16;;;;;;;4.35;2.60;;;10.60;91.50;;;;;;5032233;28;20062;-68
2023/03/05 02:07:43;;;;;;;4.82;2.17;;;10.50;91.50;;;;;;5031924;28;20383;-68
2023/03/05 02:10:19;;;;;;;3.30;2.28;;;10.50;91.60;;;;;;5031986;28;20014;-68
2023/03/05 02:12:47;;;;;;;7.43;2.90;;;10.60;91.60;;;;;;5032193;28;20356;-68
2023/03/05 02:15:13;;;;;;;5.35;2.30;;;10.50;91.60;;;;;;5032194;28;20021;-68
2023/03/05 02:17:39;;;;;;;5.82;2.72;;;10.50;91.50;;;;;;5032373;28;20052;-68
2023/03/05 02:20:14;;;;;;;4.70;2.65;;;10.50;91.50;;;;;;5032164;28;20072;-68
2023/03/05 02:22:40;;;;;;;6.18;2.92;;;10.50;91.50;;;;;;5032159;28;20610;-69
2023/03/05 02:25:32;;;;;;;4.80;3.10;;;10.50;91.40;;;;;;5014386;28;20104;-68
2023/03/05 02:28:04;;;;;;;6.18;3.13;;;10.50;91.40;;;;;;5027476;28;20099;-68
2023/03/05 02:30:30;;;;;;;7.22;2.80;;;10.50;91.50;;;;;;5032259;28;20022;-68
2023/03/05 02:32:56;;;;;;;6.07;2.83;;;10.40;91.40;;;;;;5032697;28;20482;-68
2023/03/05 02:35:22;;;;;;;5.55;2.92;;;10.40;91.40;;;;;;5032337;28;20378;-68
2023/03/05 02:37:48;;;;;;;6.70;2.80;;;10.40;91.40;;;;;;5032894;28;20037;-68
2023/03/05 02:40:14;;;;;;;7.72;3.13;;;10.40;91.40;;;;;;5035495;28;20025;-68
2023/03/05 02:42:40;;;;;;;5.32;3.25;;;10.40;91.50;;;;;;5018082;28;20088;-68
2023/03/05 02:45:06;;;;;;;5.75;3.63;;;10.40;91.60;;;;;;5035655;28;20426;-68
2023/03/05 02:47:32;;;;;;;7.57;4.30;;;10.30;91.60;;;;;;5035309;28;20470;-69
2023/03/05 02:49:57;;;;;;;6.38;3.10;;;10.40;91.60;;;;;;5035686;28;20028;-68
2023/03/05 02:52:24;;;;;;;4.57;3.00;;;10.30;91.70;;;;;;5035617;28;20136;-69
2023/03/05 02:54:50;;;;;;;5.63;3.33;;;10.30;91.70;;;;;;5035124;28;20028;-69
2023/03/05 02:57:17;;;;;;;9.45;4.22;;;10.20;91.70;;;;;;5035455;28;20021;-68
2023/03/05 02:59:42;;;;;;;6.85;3.90;;;10.30;91.70;;;;;;5035298;28;20025;-69
2023/03/05 03:02:08;;;;;;;7.28;4.13;;;10.20;91.70;;;;;;5035565;28;20087;-68
2023/03/05 03:04:33;;;;;;;10.07;4.25;;;10.20;91.70;;;;;;5035181;28;20083;-68
2023/03/05 03:06:59;;;;;;;10.23;4.80;;;10.30;91.70;;;;;;5035134;28;20048;-69
2023/03/05 03:09:25;;;;;;;9.70;4.15;;;10.20;91.70;;;;;;5017352;28;20018;-68
2023/03/05 03:11:52;;;;;;;6.38;4.22;;;10.20;91.80;;;;;;5017331;28;20029;-68
2023/03/05 03:14:17;;;;;;;5.18;4.45;;;10.20;91.80;;;;;;5035360;28;20036;-68
2023/03/05 03:16:43;;;;;;;6.55;4.20;;;10.20;91.90;;;;;;5035568;28;20025;-68
2023/03/05 03:19:08;;;;;;;7.05;4.00;;;10.20;91.90;;;;;;5035148;28;20028;-68
2023/03/05 03:21:36;;;;;;;8.85;4.63;;;10.20;92.00;;;;;;5034913;28;20018;-68
2023/03/05 03:24:02;;;;;;;7.25;4.18;;;10.10;91.90;;;;;;5034896;28;20105;-68
2023/03/05 03:26:29;;;;;;;6.57;4.72;;;10.10;92.00;;;;;;5034807;28;20108;-68
2023/03/05 03:28:54;;;;;;;7.18;4.55;;;10.10;92.00;;;;;;5034928;28;20020;-68
2023/03/05 03:31:20;;;;;;;9.82;4.72;;;10.10;92.00;;;;;;5034887;28;20021;-69
2023/03/05 03:33:45;;;;;;;7.28;3.95;;;10.10;92.00;;;;;;5034671;28;20026;-68
2023/03/05 03:36:11;;;;;;;6.68;3.90;;;10.10;92.10;;;;;;5034960;28;20029;-68
2023/03/05 03:38:37;;;;;;;8.10;4.43;;;10.10;92.10;;;;;;5034570;28;20053;-68
2023/03/05 03:41:06;;;;;;;5.72;4.15;;;10.10;92.10;;;;;;5034786;28;20083;-69
2023/03/05 03:43:32;;;;;;;7.63;4.63;;;10.10;92.10;;;;;;5035260;28;20025;-69
2023/03/05 03:45:58;;;;;;;5.88;4.70;;;10.10;92.10;;;;;;5034372;28;20018;-68
2023/03/05 03:48:23;;;;;;;9.02;4.53;;;10.10;92.10;;;;;;5034597;28;20470;-68
2023/03/05 03:50:49;;;;;;;7.30;4.20;;;10.10;92.10;;;;;;5033715;28;20391;-68
2023/03/05 03:53:16;;;;;;;5.97;4.28;;;10.10;92.40;;;;;;5036335;28;20036;-68
2023/03/05 03:55:42;;;;;;;7.45;4.38;;;10.10;92.10;;;;;;5042699;28;20534;-68
2023/03/05 03:58:08;;;;;;;9.05;4.18;;;10.00;92.10;;;;;;5015822;28;20017;-68
2023/03/05 04:00:34;;;;;;;5.53;4.10;;;10.10;92.10;;;;;;5034047;28;20029;-68
2023/03/05 04:03:00;;;;;;;8.50;4.78;;;10.00;92.20;;;;;;5034381;28;20029;-68
2023/03/05 04:05:25;;;;;;;7.63;3.90;;;10.00;92.20;;;;;;5034051;28;20021;-68
2023/03/05 04:07:51;;;;;;;6.47;3.78;;;10.00;92.30;;;;;;5033547;28;20046;-68
2023/03/05 04:10:17;;;;;;;9.48;4.38;;;10.00;92.30;;;;;;5034215;28;20025;-68
2023/03/05 04:12:42;;;;;;;6.60;4.25;;;10.00;92.30;;;;;;5033838;28;20491;-68
2023/03/05 04:15:09;;;;;;;8.45;4.03;;;10.00;92.30;;;;;;5034106;28;20025;-69
2023/03/05 04:17:35;;;;;;;5.15;4.05;;;10.00;92.30;;;;;;5016230;28;20055;-69
2023/03/05 04:20:00;;;;;;;8.40;4.20;;;10.00;92.40;;;;;;5034010;28;20037;-68
2023/03/05 04:22:26;;;;;;;7.75;4.57;;;10.00;92.40;;;;;;5032836;28;20442;-68
2023/03/05 04:24:52;;;;;;;6.43;3.63;;;10.00;92.30;;;;;;5034319;28;20072;-68
2023/03/05 04:27:17;;;;;;;7.00;3.80;;;10.00;92.40;;;;;;5033667;28;20064;-68
2023/03/05 04:29:43;;;;;;;5.93;3.53;;;10.00;92.40;;;;;;5033877;28;20072;-68
2023/03/05 04:32:08;;;;;;;9.63;3.90;;;9.90;92.40;;;;;;5033704;28;20022;-68
2023/03/05 04:34:36;;;;;;;7.97;3.67;;;10.00;92.40;;;;;;5033639;28;20506;-68
2023/03/05 04:37:01;;;;;;;6.85;3.72;;;9.90;92.40;;;;;;5033104;28;20063;-68
2023/03/05 04:39:27;;;;;;;7.03;3.88;;;9.90;92.50;;;;;;5033628;28;20018;-68
2023/03/05 04:41:53;;;;;;;5.20;4.15;;;9.90;92.50;;;;;;5033438;28;20063;-68
2023/03/05 04:44:18;;;;;;;6.18;3.72;;;9.90;92.60;;;;;;5033574;28;20029;-68
2023/03/05 04:46:44;;;;;;;7.05;3.97;;;9.90;92.60;;;;;;5033227;28;20037;-68
2023/03/05 04:49:09;;;;;;;7.05;3.97;;;9.80;92.50;;;;;;5033208;28;20028;-68
2023/03/05 04:51:35;;;;;;;7.13;4.05;;;9.80;92.50;;;;;;5033390;28;20029;-68
2023/03/05 04:54:00;;;;;;;8.57;4.30;;;9.80;92.60;;;;;;5033071;28;20022;-68
2023/03/05 04:56:26;;;;;;;8.27;4.20;;;9.80;92.60;;;;;;5033248;28;20033;-68
2023/03/05 04:58:51;;;;;;;9.63;3.60;;;9.80;92.60;;;;;;5033103;28;20017;-68
2023/03/05 05:01:17;;;;;;;6.18;3.45;;;9.80;92.70;;;;;;5032397;28;20044;-68
2023/03/05 05:03:43;;;;;;;10.43;4.25;;;9.80;92.70;;;;;;5032782;28;20490;-68
2023/03/05 05:06:08;;;;;;;6.05;3.60;;;9.90;92.70;;;;;;5015098;28;20046;-68
2023/03/05 05:08:35;;;;;;;6.38;4.20;;;9.80;92.70;;;;;;5032950;28;20026;-68
2023/03/05 05:11:04;;;;;;;7.63;4.15;;;9.80;92.80;;;;;;5032990;28;20033;-68
2023/03/05 05:13:30;;;;;;;6.43;3.78;;;9.80;92.80;;;;;;5032901;28;20021;-69
2023/03/05 05:15:56;;;;;;;8.15;3.85;;;9.80;92.90;;;;;;5032460;28;20116;-69
2023/03/05 05:18:22;;;;;;;8.63;4.50;;;9.80;93.00;;;;;;5032765;28;20028;-68
2023/03/05 05:20:48;;;;;;;9.15;4.15;;;9.70;93.10;;;;;;5032891;28;20374;-68
2023/03/05 05:23:14;;;;;;;6.95;4.15;;;9.70;93.20;;;;;;5032716;28;20104;-69
2023/03/05 05:25:40;;;;;;;10.00;4.45;;;9.70;93.30;;;;;;5032812;28;20049;-68
2023/03/05 05:28:05;;;;;;;9.30;4.68;;;9.70;93.40;;;;;;5032722;28;20029;-68
2023/03/05 05:30:31;;;;;;;6.03;4.15;;;9.70;93.50;;;;;;5032580;28;20104;-69
2023/03/05 05:32:56;;;;;;;13.18;4.72;;;9.70;93.60;;;;;;5032379;28;20471;-68
2023/03/05 05:35:22;;;;;;;6.63;4.07;;;9.70;93.70;;;;;;5032593;28;20486;-68
2023/03/05 05:37:48;;;;;;;9.65;4.05;;;9.80;93.70;;;;;;5032411;28;20072;-68
2023/03/05 05:40:14;;;;;;;7.75;4.72;;;9.70;93.70;;;;;;5032798;28;20037;-68
2023/03/05 05:42:39;;;;;;;7.68;4.90;;;9.70;93.80;;;;;;5015004;28;20025;-69
2023/03/05 05:45:06;;;;;;;6.05;4.75;;;9.70;93.90;;;;;;5014927;28;20024;-68
2023/03/05 05:47:31;;;;;;;7.35;4.50;;;9.70;94.00;;;;;;5014439;28;20038;-68
2023/03/05 05:49:57;;;;;;;8.57;4.53;;;9.70;94.00;;;;;;5032304;28;20032;-69
2023/03/05 05:52:22;;;;;;;10.05;5.25;;;9.60;94.00;;;;;;5032621;28;20026;-68
2023/03/05 05:54:48;;;;;;;9.77;5.15;;;9.70;94.00;;;;;;5032448;28;20039;-68
2023/03/05 05:57:14;;;;;;;6.95;4.93;;;9.70;93.90;;;;;;5032132;28;20075;-67
2023/03/05 05:59:40;;;;;;;8.52;5.57;;;9.70;94.00;;;;;;5032504;28;20052;-68
2023/03/05 06:02:06;;;;;;;7.95;6.47;;;9.70;94.00;;;;;;5031992;28;20452;-68
2023/03/05 06:04:33;;;;;;;9.80;6.38;;;9.70;94.10;;;;;;5032386;28;20101;-68
2023/03/05 06:06:59;;;;;;;8.13;5.97;;;9.60;94.10;;;;;;5031965;28;20068;-68
2023/03/05 06:09:25;;;;;;;10.00;6.45;;;9.60;94.10;;;;;;5032673;28;20018;-68
2023/03/05 06:11:51;;;;;;;8.20;6.75;;;9.60;94.20;;;;;;5032266;28;20223;-69
2023/03/05 06:14:16;;;;;;;10.40;6.25;;;9.60;94.30;;;;;;5035765;28;20021;-68
2023/03/05 06:16:42;;;;;;;9.85;7.22;;;9.60;94.30;;;;;;5035967;28;20064;-69
2023/03/05 06:19:11;;;;;;;11.32;7.10;;;9.60;94.30;;;;;;5036320;28;20534;-69
2023/03/05 06:21:37;;;;;;;12.93;6.75;;;9.60;94.30;;;;;;5036130;28;20490;-69
2023/03/05 06:24:02;;;;;;;9.98;6.75;;;9.60;94.30;;;;;;5036189;28;20028;-68
2023/03/05 06:26:28;;;;;;;10.75;6.63;;;9.60;94.30;;;;;;5036104;28;20029;-69
2023/03/05 06:28:53;;;;;;;10.80;6.88;;;9.60;94.40;;;;;;5036105;28;20029;-68
2023/03/05 06:31:24;;;;;;;10.32;7.20;;;9.60;94.40;;;;;;5035730;28;20026;-69
2023/03/05 06:33:51;;;;;;;8.82;6.45;;;9.60;94.40;;;;;;5036052;28;20029;-68
2023/03/05 06:36:19;;;;;;;12.68;7.15;;;9.60;94.50;;;;;;5035860;28;20034;-69
2023/03/05 06:38:45;;;;;;;10.55;7.10;;;9.60;94.40;;;;;;5036003;28;20055;-69
2023/03/05 06:41:16;;;;;;;9.13;6.65;;;9.60;94.50;;;;;;5035900;28;20105;-68
2023/03/05 06:43:44;;;;;;;9.45;6.75;;;9.60;94.40;;;;;;5035843;28;20463;-69
2023/03/05 06:46:22;;;;;;;10.85;6.80;;;9.60;94.40;;;;;;5035132;28;20033;-69
2023/03/05 06:48:49;;;;;;;11.95;6.60;;;9.60;94.40;;;;;;5018161;28;20021;-68
2023/03/05 06:51:24;;;;;;;10.02;6.93;;;9.60;94.30;;;;;;5035401;28;20493;-68
2023/03/05 06:53:50;;;;;;;11.27;6.72;;;9.60;94.30;;;;;;5035951;28;20038;-68
2023/03/05 06:56:17;;;;;;;12.00;7.03;;;9.60;94.30;;;;;;5035177;28;20494;-69
2023/03/05 06:58:44;;;;;;;7.93;6.05;;;9.60;94.20;;;;;;5035633;28;20109;-69
2023/03/05 07:01:10;;;;;;;8.40;6.03;;;9.60;94.20;;;;;;5035236;28;20021;-70
2023/03/05 07:03:36;;;;;;;8.07;6.18;;;9.60;94.20;;;;;;5035414;28;20024;-69
2023/03/05 07:06:03;;;;;;;7.75;6.60;;;9.60;94.20;;;;;;5034956;28;20037;-69
2023/03/05 07:08:29;;;;;;;7.90;5.70;;;9.60;94.30;;;;;;5035264;28;20486;-69
2023/03/05 07:10:55;;;;;;;10.93;7.00;;;9.60;94.30;;;;;;5042815;28;20112;-69
2023/03/05 07:13:20;;;;;;;10.45;6.57;;;9.50;94.40;;;;;;5043580;28;20035;-70
2023/03/05 07:15:46;;;;;;;7.85;6.20;;;9.50;94.40;;;;;;5044451;28;20056;-69
2023/03/05 07:18:11;;;;;;;6.70;6.00;;;9.50;94.40;;;;;;5050342;28;20060;-70
2023/03/05 07:20:37;;;;;;;7.15;5.57;;;9.50;94.50;;;;;;5042240;28;20028;-72
2023/03/05 07:23:03;;;;;;;9.95;6.00;;;9.50;94.50;;;;;;5044863;28;20087;-68
2023/03/05 07:25:29;;;;;;;8.68;6.78;;;9.50;94.70;;;;;;5046650;28;20049;-71
2023/03/05 07:27:54;;;;;;;7.15;6.45;;;9.50;94.70;;;;;;5039752;28;20029;-69
2023/03/05 07:30:20;;;;;;;9.20;6.70;;;9.50;94.80;;;;;;5033919;28;20025;-71
2023/03/05 07:32:46;;;;;;;9.05;7.13;;;9.60;94.80;;;;;;5044535;28;20032;-71
2023/03/05 07:35:11;;;;;;;13.25;7.38;;;9.50;94.70;;;;;;5046179;28;20033;-70
2023/03/05 07:37:37;;;;;;;8.80;6.70;;;9.60;94.70;;;;;;5043390;28;20033;-69
2023/03/05 07:40:03;;;;;;;8.05;7.25;;;9.60;94.70;;;;;;5036757;28;20066;-70
2023/03/05 07:42:29;;;;;;;10.85;7.20;;;9.70;94.80;;;;;;5036704;28;20463;-71
2023/03/05 07:44:55;;;;;;;8.82;6.10;;;9.60;95.10;;;;;;5034801;28;20028;-72
2023/03/05 07:47:22;;;;;;;7.50;5.80;;;9.70;94.90;;;;;;5033883;28;20393;-71
2023/03/05 07:49:48;;;;;;;6.43;5.10;;;9.70;94.90;;;;;;5037675;28;20022;-71
2023/03/05 07:52:14;;;;;;;5.75;4.35;;;9.60;95.00;;;;;;5042283;28;20596;-72
2023/03/05 07:54:39;;;;;;;5.78;4.38;;;9.70;95.00;;;;;;5048684;28;20029;-72
2023/03/05 07:57:06;;;;;;;3.97;3.00;;;9.70;95.10;;;;;;5039087;28;20483;-73
2023/03/05 07:59:32;;;;;;;5.05;3.08;;;9.70;95.40;;;;;;5047491;28;20112;-69
2023/03/05 08:01:58;;;;;;;5.32;2.72;;;9.70;95.00;;;;;;5021721;28;20029;-69
2023/03/05 08:04:24;;;;;;;6.18;2.90;;;9.70;94.90;;;;;;5046763;28;20047;-68
2023/03/05 08:06:49;;;;;;;3.30;2.60;;;9.70;94.90;;;;;;5039080;28;20136;-72
2023/03/05 08:09:16;;;;;;;3.53;2.25;;;9.70;94.90;;;;;;5044043;28;20441;-70
2023/03/05 08:11:41;;;;;;;3.10;2.67;;;9.70;95.20;;;;;;5045785;28;20490;-72
2023/03/05 08:14:07;;;;;;;3.35;1.90;;;9.60;95.10;;;;;;5022038;28;20411;-74
2023/03/05 08:16:33;;;;;;;5.47;2.20;;;9.60;95.30;;;;;;5042285;28;20037;-71
2023/03/05 08:18:59;;;;;;;2.92;2.05;;;9.60;95.50;;;;;;5047023;28;20021;-74
2023/03/05 08:21:28;;;;;;;3.42;2.30;;;9.70;95.50;;;;;;5042519;28;20021;-71
2023/03/05 08:23:57;;;;;;;3.80;1.80;;;9.70;95.50;;;;;;5041558;28;20021;-72
2023/03/05 08:26:27;;;;;;;3.28;2.05;;;9.70;95.50;;;;;;5043233;28;20029;-70
2023/03/05 08:28:53;;;;;;;2.20;1.45;;;9.70;95.70;;;;;;5042821;28;20020;-70
2023/03/05 08:31:21;;;;;;;4.75;1.98;;;9.60;95.60;;;;;;5036142;28;20632;-71
2023/03/05 08:33:48;;;;;;;3.30;2.03;;;9.70;95.60;;;;;;5046193;28;20116;-69
2023/03/05 08:36:14;;;;;;;4.15;1.98;;;9.70;95.90;;;;;;5040371;28;20540;-68
2023/03/05 08:38:40;;;;;;;2.60;2.30;;;9.60;95.70;;;;;;5042522;28;20064;-68
2023/03/05 08:41:06;;;;;;;3.80;1.67;;;9.70;95.80;;;;;;5045350;28;20119;-70
2023/03/05 08:43:32;;;;;;;3.20;1.63;;;9.70;95.80;;;;;;5039903;28;20469;-71
2023/03/05 08:45:59;;;;;;;3.40;2.30;;;9.70;95.70;;;;;;5043731;28;21381;-69
2023/03/05 08:48:25;;;;;;;4.40;2.20;;;9.80;95.80;;;;;;5043720;28;20040;-71
2023/03/05 08:50:52;;;;;;;3.13;2.08;;;9.80;95.80;;;;;;5044633;28;20021;-70
2023/03/05 08:53:17;;;;;;;2.55;1.45;;;9.80;95.70;;;;;;5049403;28;20074;-70
2023/03/05 08:55:43;;;;;;;3.70;2.05;;;9.90;95.60;;;;;;5047136;28;20029;-71
2023/03/05 08:58:09;;;;;;;3.03;1.85;;;9.90;95.50;;;;;;5045332;28;20497;-69
2023/03/05 09:00:34;;;;;;;2.13;1.75;;;9.90;95.50;;;;;;5021370;28;20441;-72
2023/03/05 09:03:00;;;;;;;2.58;2.05;;;9.90;95.60;;;;;;5039348;28;20033;-71
2023/03/05 09:05:25;;;;;;;4.05;2.20;;;10.00;95.60;;;;;;5041630;28;20096;-71
2023/03/05 09:07:51;;;;;;;3.03;1.88;;;10.00;95.60;;;;;;5046080;28;20072;-69
2023/03/05 09:10:17;;;;;;;3.35;1.67;;;10.10;95.60;;;;;;5047676;28;20032;-69
2023/03/05 09:12:43;;;;;;;3.38;1.60;;;10.00;95.60;;;;;;5052426;28;20065;-70
2023/03/05 09:15:10;;;;;;;4.03;1.27;;;10.10;95.50;;;;;;5048403;28;20135;-69
2023/03/05 09:17:38;;;;;;;6.45;1.55;;;10.10;95.40;;;;;;5018613;28;20025;-69
2023/03/05 09:20:04;;;;;;;3.65;1.63;;;10.20;95.10;;;;;;5046068;28;20067;-70
2023/03/05 09:22:30;;;;;;;2.55;1.92;;;10.10;95.20;;;;;;5038281;28;20032;-70
2023/03/05 09:24:56;;;;;;;3.25;1.90;;;10.20;95.20;;;;;;5049960;28;20025;-68
2023/03/05 09:27:22;;;;;;;2.13;1.42;;;10.20;94.90;;;;;;5043507;28;20036;-70
2023/03/05 09:29:48;;;;;;;2.20;1.20;;;10.20;95.00;;;;;;5040290;28;20022;-71
2023/03/05 09:32:14;;;;;;;4.65;1.40;;;10.20;94.90;;;;;;5032757;28;20033;-70
2023/03/05 09:34:40;;;;;;;1.45;1.20;;;10.30;94.80;;;;;;5044912;28;20040;-70
2023/03/05 09:37:06;;;;;;;3.15;1.60;;;10.30;94.90;;;;;;5042221;28;20032;-72
2023/03/05 09:39:32;;;;;;;2.45;1.25;;;10.30;94.80;;;;;;5034150;28;20087;-72
2023/03/05 09:42:10;;;;;;;4.85;2.50;;;10.30;95.20;;;;;;5042467;28;20033;-72
2023/03/05 09:45:07;;;;;;;2.72;1.48;;;10.40;95.20;;;;;;5030306;28;21379;-70
2023/03/05 09:48:00;;;;;;;4.18;1.77;;;10.40;95.60;;;;;;5037120;28;20033;-69
2023/03/05 09:50:30;;;;;;;;;;;10.50;95.30;;;;;;5039411;28;20045;-69
2023/03/05 09:53:03;;;;;;;5.60;2.30;;;10.50;95.10;;;;;;5040841;28;20468;-71
2023/03/05 09:55:53;;;;;;;3.80;2.30;;;10.50;95.00;;;;;;5026568;28;20039;-69
2023/03/05 09:58:43;;;;;;;4.07;2.47;;;10.50;94.40;;;;;;5040495;28;20025;-69
2023/03/05 10:01:12;;;;;;;4.28;1.83;;;10.50;94.60;;;;;;5022690;28;20045;-69
2023/03/05 10:03:58;;;;;;;6.57;1.38;;;10.50;95.10;;;;;;5043921;28;20537;-69
2023/03/05 10:06:40;;;;;;;3.35;1.67;;;10.50;95.10;;;;;;5040447;28;20045;-70
2023/03/05 10:09:30;;;;;;;4.75;1.23;;;10.60;95.00;;;;;;5034653;28;20564;-69
2023/03/05 10:12:01;;;;;;;5.03;1.88;;;10.60;94.90;;;;;;5043156;28;20025;-69
2023/03/05 10:14:30;;;;;;;2.75;1.83;;;10.60;95.00;;;;;;5036233;28;20410;-69
2023/03/05 10:17:17;;;;;;;4.82;1.88;;;10.70;95.20;;;;;;5042188;28;20560;-71
2023/03/05 10:20:06;;;;;;;4.30;1.73;;;10.70;95.00;;;;;;5042959;28;20149;-71
2023/03/05 10:22:54;;;;;;;3.55;1.58;;;10.70;95.30;;;;;;5045122;28;20037;-71
2023/03/05 10:25:29;;;;;;;3.13;1.50;;;10.80;94.90;;;;;;5040085;28;20037;-71
2023/03/05 10:28:04;;;;;;;5.25;1.60;;;10.80;94.60;;;;;;5042951;28;20044;-70
2023/03/05 10:30:38;;;;;;;2.80;1.58;;;10.80;94.70;;;;;;5041605;28;20048;-70
2023/03/05 10:33:38;;;;;;;2.10;1.45;;;10.90;94.50;;;;;;5045333;28;20036;-70
2023/03/05 10:36:06;;;;;;;2.58;1.67;;;10.90;94.30;;;;;;5044664;28;20021;-71
2023/03/05 10:39:09;;;;;;;3.72;2.42;;;11.00;94.60;;;;;;5045014;28;20475;-71
2023/03/05 10:42:01;;;;;;;2.60;1.90;;;11.00;94.50;;;;;;5044880;28;20397;-70
2023/03/05 10:44:42;;;;;;;5.70;1.90;;;11.00;94.30;;;;;;5046660;28;20032;-71
2023/03/05 10:47:23;;;;;;;4.97;1.55;;;11.10;94.80;;;;;;5038935;28;20090;-70
2023/03/05 10:49:54;;;;;;;3.20;1.48;;;11.10;94.30;;;;;;5036338;28;20098;-70
2023/03/05 10:52:22;;;;;;;3.83;1.75;;;11.10;94.20;;;;;;5039240;28;20022;-72
2023/03/05 10:54:48;;;;;;;4.15;1.38;;;11.10;94.10;;;;;;5035944;28;20528;-74
2023/03/05 10:57:23;;;;;;;2.92;1.23;;;11.20;94.20;;;;;;5043638;28;20021;-72
2023/03/05 11:00:16;;;;;;;5.28;1.20;;;11.20;93.60;;;;;;5040595;28;20080;-73
2023/03/05 11:02:58;;;;;;;3.05;1.35;;;11.20;93.40;;;;;;5048616;28;20049;-72
2023/03/05 11:05:41;;;;;;;8.35;1.75;;;11.30;94.70;;;;;;5043508;28;20029;-72
2023/03/05 11:08:24;;;;;;;4.10;1.65;;;11.30;94.30;;;;;;5045685;28;20037;-77
2023/03/05 11:11:08;;;;;;;8.45;1.88;;;11.30;93.60;;;;;;5039448;28;20079;-77
2023/03/05 11:13:40;;;;;;;8.73;1.52;;;11.30;93.90;;;;;;5048505;28;20044;-72
2023/03/05 11:16:06;;;;;;;5.37;1.90;;;11.40;93.50;;;;;;5046134;28;20047;-72
2023/03/05 11:18:36;;;;;;;5.03;1.30;;;11.40;95.40;;;;;;5044190;28;20291;-71
2023/03/05 11:21:26;;;;;;;2.00;1.10;;;11.50;93.80;;;;;;5050959;28;20059;-78
2023/03/05 11:24:17;;;;;;;4.63;1.13;;;11.50;93.10;;;;;;5046520;28;20037;-72
2023/03/05 11:26:56;;;;;;;3.65;0.77;;;11.50;94.00;;;;;;5037974;28;20090;-73
2023/03/05 11:29:28;;;;;;;4.90;1.02;;;11.50;93.00;;;;;;5041579;28;20082;-74
2023/03/05 11:31:54;;;;;;;2.85;0.70;;;11.60;93.30;;;;;;5044100;28;20374;-69
2023/03/05 11:34:29;;;;;;;4.90;1.33;;;11.60;93.70;;;;;;5050394;28;20021;-71
2023/03/05 11:36:55;;;;;;;7.90;1.60;;;11.60;94.30;;;;;;5049071;28;20025;-72
2023/03/05 11:39:23;;;;;;;4.13;1.30;;;11.70;94.20;;;;;;5049770;28;20025;-72
2023/03/05 11:41:56;;;;;;;2.78;1.30;;;11.70;94.00;;;;;;5043593;28;20025;-71
2023/03/05 11:44:29;;;;;;;7.43;1.35;;;11.80;93.80;;;;;;5045533;28;20018;-72
2023/03/05 11:47:15;;;;;;;4.13;1.10;;;11.80;95.90;;;;;;5039403;28;20075;-71
2023/03/05 11:49:45;;;;;;;3.20;0.95;;;11.90;93.80;;;;;;5021350;28;20497;-72
2023/03/05 11:52:22;;;;;;;3.15;0.68;;;11.90;92.10;;;;;;5046111;28;20028;-70
2023/03/05 11:55:12;;;;;;;3.08;0.40;;;11.90;91.20;;;;;;5050392;28;20021;-71
2023/03/05 11:58:06;;;;;;;2.53;0.47;;;11.90;91.00;;;;;;5036717;28;20064;-72
2023/03/05 12:00:35;;;;;;;3.05;0.32;;;11.90;90.50;;;;;;5042809;28;20025;-72
2023/03/05 12:03:11;;;;;;;4.00;0.60;;;11.90;90.30;;;;;;5043878;28;20044;-72
2023/03/05 12:05:40;;;;;;;2.35;0.70;;;11.80;90.80;;;;;;5040749;28;20021;-72
2023/03/05 12:08:20;;;;;;;2.70;0.80;;;11.90;90.90;;;;;;5044927;28;20045;-72
2023/03/05 12:10:46;;;;;;;3.45;0.52;;;11.80;91.10;;;;;;5044162;28;20032;-72
2023/03/05 12:13:27;;;;;;;3.28;0.60;;;11.80;91.60;;;;;;5048439;28;20029;-72
2023/03/05 12:15:55;;;;;;;3.40;0.77;;;11.80;92.10;;;;;;5041889;28;20056;-71
2023/03/05 12:18:39;;;;;;;3.50;0.70;;;11.70;92.30;;;;;;5045638;28;20029;-71
2023/03/05 12:21:14;;;;;;;4.35;0.75;;;11.80;91.90;;;;;;5042906;28;20140;-70
2023/03/05 12:23:45;;;;;;;3.17;0.93;;;11.80;92.50;;;;;;5041708;28;20040;-71
2023/03/05 12:26:11;;;;;;;3.97;0.60;;;11.80;91.90;;;;;;5044316;28;20078;-70
2023/03/05 12:28:45;;;;;;;2.88;0.75;;;11.80;91.60;;;;;;5026726;28;20033;-70
2023/03/05 12:31:25;;;;;;;1.63;0.40;;;11.90;91.30;;;;;;5045233;28;20025;-71
2023/03/05 12:33:51;;;;;;;1.92;0.60;;;11.80;91.40;;;;;;5044891;28;20022;-70
2023/03/05 12:36:16;;;;;;;2.28;0.57;;;11.80;91.20;;;;;;5045243;28;20017;-70
2023/03/05 12:38:43;;;;;;;2.50;0.50;;;11.80;91.80;;;;;;5021126;28;20480;-71
2023/03/05 12:41:21;;;;;;;3.33;0.35;;;11.80;91.00;;;;;;5043724;28;20018;-70
2023/03/05 12:44:05;;;;;;;1.13;0.30;;;11.80;90.80;;;;;;5039849;28;20478;-72
2023/03/05 12:46:41;;;;;;;1.15;0.17;;;11.90;90.50;;;;;;5047125;28;20432;-70
2023/03/05 12:49:19;;;;;;;9.63;0.50;;;11.80;90.50;;;;;;5040297;28;20474;-70
2023/03/05 12:51:57;;;;;;;2.30;0.68;;;11.80;90.40;;;;;;5034859;28;20372;-70
2023/03/05 12:54:34;;;;;;;2.20;0.52;;;11.70;91.00;;;;;;5035254;28;20501;-70
2023/03/05 12:57:03;;;;;;;2.42;0.50;;;11.80;90.80;;;;;;5038962;28;20029;-70
2023/03/05 12:59:42;;;;;;;1.73;0.40;;;11.80;91.00;;;;;;5040139;28;20029;-71
2023/03/05 13:02:43;;;;;;;2.03;0.40;;;11.70;91.70;;;;;;5047296;28;20116;-70